Time;durP1;ratioP1;P1;durP2;ratioP2;P2;SDS_P1;SDS_P2;PMS_P1;PMS_P2;Temp;Humidity;BMP_temperature;BMP_pressure;BME280_temperature;BME280_humidity;BME280_pressure;Samples;Min_cycle;Max_cycle;Signal;HPM_P1;HPM_P2
2023/03/06 00:00:37;;;;;;;3.15;0.60;;;4.00;91.60;;;;;;4939541;29;20055;-84
2023/03/06 00:03:05;;;;;;;2.78;0.70;;;4.00;91.70;;;;;;4961166;28;20045;-87
2023/03/06 00:05:34;;;;;;;1.73;0.70;;;3.90;91.80;;;;;;4958249;28;20116;-87
2023/03/06 00:08:02;;;;;;;2.15;0.70;;;3.80;91.80;;;;;;4940687;29;20137;-88
2023/03/06 00:10:30;;;;;;;1.85;0.55;;;3.80;91.90;;;;;;4955975;29;20110;-88
2023/03/06 00:13:03;;;;;;;2.22;0.70;;;3.70;92.00;;;;;;4955990;29;20047;-87
2023/03/06 00:15:30;;;;;;;1.60;0.68;;;3.70;92.00;;;;;;4940221;29;20047;-88
2023/03/06 00:18:04;;;;;;;1.50;0.60;;;3.70;92.10;;;;;;4924651;29;20129;-88
2023/03/06 00:20:32;;;;;;;1.90;0.80;;;3.60;92.20;;;;;;4956193;29;20058;-87
2023/03/06 00:22:59;;;;;;;2.03;0.70;;;3.60;92.20;;;;;;4940348;29;20130;-88
2023/03/06 00:25:26;;;;;;;2.08;0.80;;;3.60;92.20;;;;;;4940105;29;20043;-87
2023/03/06 00:27:55;;;;;;;1.63;0.77;;;3.60;92.30;;;;;;4935188;29;20062;-88
2023/03/06 00:30:25;;;;;;;1.65;0.57;;;3.50;92.30;;;;;;4939745;29;20064;-79
2023/03/06 00:32:53;;;;;;;2.35;0.73;;;3.50;92.40;;;;;;4954636;29;20043;-79
2023/03/06 00:35:22;;;;;;;2.75;0.70;;;3.50;92.40;;;;;;4954483;29;20520;-79
2023/03/06 00:37:49;;;;;;;3.10;0.93;;;3.40;92.50;;;;;;4954796;29;20081;-80
2023/03/06 00:40:19;;;;;;;3.08;0.85;;;3.40;92.50;;;;;;4954292;29;20050;-78
2023/03/06 00:42:48;;;;;;;1.77;0.80;;;3.40;92.50;;;;;;4954401;29;20110;-79
2023/03/06 00:45:15;;;;;;;2.60;0.98;;;3.40;92.50;;;;;;4954404;29;20054;-79
2023/03/06 00:47:44;;;;;;;2.28;0.80;;;3.40;92.60;;;;;;4923447;29;20058;-79
2023/03/06 00:50:11;;;;;;;3.07;1.17;;;3.30;92.60;;;;;;4922615;29;20383;-79
2023/03/06 00:52:39;;;;;;;3.13;0.90;;;3.30;92.70;;;;;;4938484;29;20043;-79
2023/03/06 00:55:10;;;;;;;2.45;1.00;;;3.30;92.80;;;;;;4938485;29;20065;-79
2023/03/06 00:57:37;;;;;;;2.37;0.80;;;3.20;92.70;;;;;;4954223;29;20043;-78
2023/03/06 01:00:05;;;;;;;3.17;1.00;;;3.20;92.80;;;;;;4938200;29;20050;-79
2023/03/06 01:02:32;;;;;;;3.73;0.97;;;3.20;92.90;;;;;;4954033;29;20047;-79
2023/03/06 01:04:59;;;;;;;1.55;0.75;;;3.10;92.90;;;;;;4954610;29;20039;-79
2023/03/06 01:07:26;;;;;;;2.80;1.07;;;3.10;92.90;;;;;;4938507;29;20069;-78
2023/03/06 01:09:53;;;;;;;1.87;0.80;;;3.10;93.00;;;;;;4938342;29;20047;-79
2023/03/06 01:12:26;;;;;;;2.67;1.10;;;3.10;93.00;;;;;;4953305;28;20051;-82
2023/03/06 01:14:53;;;;;;;2.85;0.85;;;3.10;93.00;;;;;;4953871;29;20074;-78
2023/03/06 01:17:20;;;;;;;2.92;0.93;;;3.20;93.00;;;;;;4954023;29;20044;-79
2023/03/06 01:19:47;;;;;;;2.75;1.40;;;3.10;93.00;;;;;;4937944;29;20083;-79
2023/03/06 01:22:15;;;;;;;2.22;1.00;;;3.10;93.10;;;;;;4938119;29;20041;-79
2023/03/06 01:24:42;;;;;;;4.13;1.27;;;3.10;93.10;;;;;;4922227;29;20047;-79
2023/03/06 01:27:09;;;;;;;4.20;1.27;;;3.10;93.10;;;;;;4922338;29;20046;-79
2023/03/06 01:29:38;;;;;;;1.90;0.82;;;3.10;93.10;;;;;;4931283;29;20055;-79
2023/03/06 01:32:06;;;;;;;2.20;0.98;;;3.10;93.20;;;;;;4953788;29;20071;-79
2023/03/06 01:34:33;;;;;;;2.35;1.02;;;3.10;93.20;;;;;;4938096;29;20050;-79
2023/03/06 01:37:00;;;;;;;4.25;1.65;;;3.00;93.30;;;;;;4953662;29;20521;-79
2023/03/06 01:39:30;;;;;;;2.83;1.23;;;3.00;93.30;;;;;;4922085;28;20058;-79
2023/03/06 01:42:00;;;;;;;3.97;1.83;;;3.00;93.40;;;;;;4937582;29;20055;-79
2023/03/06 01:44:27;;;;;;;2.50;1.10;;;3.00;93.40;;;;;;4922355;29;20094;-78
2023/03/06 01:47:01;;;;;;;2.53;1.17;;;3.00;93.40;;;;;;4938296;29;20043;-79
2023/03/06 01:49:35;;;;;;;4.95;1.35;;;3.00;93.40;;;;;;4954789;28;20043;-79
2023/03/06 01:52:13;;;;;;;3.90;1.50;;;3.00;93.50;;;;;;4953747;29;20102;-79
2023/03/06 01:54:49;;;;;;;4.35;1.80;;;3.00;93.50;;;;;;4955550;28;20066;-79
2023/03/06 01:57:40;;;;;;;5.55;1.90;;;3.00;93.50;;;;;;4956610;28;20054;-79
2023/03/06 02:00:20;;;;;;;2.92;1.70;;;3.00;93.50;;;;;;4940897;28;20046;-79
2023/03/06 02:03:10;;;;;;;6.35;2.35;;;3.00;93.50;;;;;;4956415;28;20047;-79
2023/03/06 02:05:40;;;;;;;4.97;2.50;;;3.00;93.70;;;;;;4943935;28;20461;-78
2023/03/06 02:08:10;;;;;;;4.45;2.22;;;2.90;93.70;;;;;;4950175;28;20051;-79
2023/03/06 02:11:09;;;;;;;7.35;3.35;;;3.00;93.70;;;;;;4953670;28;20089;-79
2023/03/06 02:13:38;;;;;;;6.70;3.60;;;2.90;93.80;;;;;;4953975;28;20114;-79
2023/03/06 02:16:07;;;;;;;6.50;4.10;;;2.90;93.90;;;;;;4951654;28;20051;-80
2023/03/06 02:18:34;;;;;;;8.23;4.05;;;2.80;93.90;;;;;;4940734;28;20101;-79
2023/03/06 02:21:05;;;;;;;7.13;4.03;;;2.80;94.00;;;;;;4937181;29;20082;-79
2023/03/06 02:23:46;;;;;;;6.35;3.90;;;2.80;94.00;;;;;;4929755;28;20050;-79
2023/03/06 02:26:15;;;;;;;7.63;4.05;;;2.80;94.00;;;;;;4944441;28;20150;-79
2023/03/06 02:28:42;;;;;;;6.30;3.53;;;2.70;94.10;;;;;;4944408;28;20053;-78
2023/03/06 02:31:23;;;;;;;7.67;3.57;;;2.70;94.10;;;;;;4944912;28;20408;-79
2023/03/06 02:34:01;;;;;;;7.93;4.30;;;2.70;94.20;;;;;;4948082;28;20085;-79
2023/03/06 02:36:29;;;;;;;8.15;4.70;;;2.70;94.20;;;;;;4960088;28;20093;-78
2023/03/06 02:38:57;;;;;;;8.05;5.28;;;2.70;94.30;;;;;;4977345;28;20121;-79
2023/03/06 02:41:25;;;;;;;11.03;6.07;;;2.70;94.40;;;;;;4944091;28;20047;-79
2023/03/06 02:43:52;;;;;;;9.45;5.10;;;2.60;94.40;;;;;;4944082;28;20042;-79
2023/03/06 02:46:20;;;;;;;9.88;6.00;;;2.60;94.50;;;;;;4928352;28;20046;-79
2023/03/06 02:48:47;;;;;;;11.85;6.32;;;2.60;94.60;;;;;;4959843;28;20054;-79
2023/03/06 02:51:14;;;;;;;10.77;6.03;;;2.50;94.60;;;;;;4943053;28;20049;-79
2023/03/06 02:53:42;;;;;;;12.35;6.82;;;2.50;94.60;;;;;;4943882;28;20607;-79
2023/03/06 02:56:09;;;;;;;11.47;7.90;;;2.50;94.70;;;;;;4958945;28;20062;-79
2023/03/06 02:58:36;;;;;;;12.90;7.95;;;2.50;94.80;;;;;;4943426;28;20497;-79
2023/03/06 03:01:04;;;;;;;15.40;9.30;;;2.50;94.80;;;;;;4943745;28;20047;-79
2023/03/06 03:03:32;;;;;;;13.50;8.70;;;2.50;94.90;;;;;;4928354;28;20046;-79
2023/03/06 03:06:00;;;;;;;14.38;8.55;;;2.50;95.00;;;;;;4946109;28;20382;-78
2023/03/06 03:08:31;;;;;;;14.47;8.37;;;2.50;94.90;;;;;;4943880;28;20053;-79
2023/03/06 03:11:02;;;;;;;14.80;8.77;;;2.50;94.90;;;;;;4959393;28;20030;-78
2023/03/06 03:13:36;;;;;;;12.98;8.30;;;2.50;95.00;;;;;;4959495;28;20142;-79
2023/03/06 03:16:08;;;;;;;14.40;9.33;;;2.50;95.00;;;;;;4943950;28;20051;-78
2023/03/06 03:18:35;;;;;;;14.37;8.37;;;2.50;95.00;;;;;;4959628;28;20444;-78
2023/03/06 03:21:12;;;;;;;14.10;9.30;;;2.50;95.00;;;;;;4943558;28;20047;-79
2023/03/06 03:23:40;;;;;;;19.10;11.77;;;2.50;95.00;;;;;;4941395;29;20047;-79
2023/03/06 03:26:09;;;;;;;15.35;10.25;;;2.60;95.10;;;;;;4943328;28;20413;-79
2023/03/06 03:28:40;;;;;;;18.42;10.65;;;2.60;95.10;;;;;;4959544;28;20134;-78
2023/03/06 03:31:09;;;;;;;17.02;10.43;;;2.60;95.10;;;;;;4943418;28;20054;-79
2023/03/06 03:33:36;;;;;;;15.37;9.77;;;2.60;95.10;;;;;;4942161;28;20414;-79
2023/03/06 03:36:05;;;;;;;15.93;10.00;;;2.60;95.20;;;;;;4942552;28;20501;-79
2023/03/06 03:38:35;;;;;;;15.77;10.18;;;2.60;95.10;;;;;;4959035;28;20082;-79
2023/03/06 03:41:03;;;;;;;18.20;11.13;;;2.70;95.20;;;;;;4942644;28;20047;-79
2023/03/06 03:43:30;;;;;;;17.60;10.27;;;2.70;95.20;;;;;;4958750;28;20058;-79
2023/03/06 03:45:58;;;;;;;17.17;10.10;;;2.70;95.30;;;;;;4959069;28;20560;-78
2023/03/06 03:48:26;;;;;;;20.43;11.30;;;2.70;95.30;;;;;;4927695;28;20045;-79
2023/03/06 03:50:54;;;;;;;19.35;10.18;;;2.70;95.30;;;;;;4942930;28;20047;-79
2023/03/06 03:53:23;;;;;;;19.67;11.53;;;2.70;95.30;;;;;;4943092;28;20105;-78
2023/03/06 03:55:50;;;;;;;17.17;10.63;;;2.70;95.40;;;;;;4942469;28;20055;-79
2023/03/06 03:58:19;;;;;;;15.45;10.15;;;2.70;95.40;;;;;;4958885;28;20051;-79
2023/03/06 04:00:48;;;;;;;19.33;11.77;;;2.70;95.40;;;;;;4942807;28;20146;-78
2023/03/06 04:03:15;;;;;;;17.57;10.33;;;2.70;95.40;;;;;;4958450;28;20520;-79
2023/03/06 04:05:44;;;;;;;16.27;9.70;;;2.80;95.40;;;;;;4924214;29;20095;-79
2023/03/06 04:08:14;;;;;;;19.00;10.57;;;2.80;95.40;;;;;;4927641;28;20256;-79
2023/03/06 04:10:44;;;;;;;18.13;10.30;;;2.80;95.50;;;;;;4927511;28;20043;-79
2023/03/06 04:13:13;;;;;;;16.25;10.77;;;2.80;95.50;;;;;;4958560;28;20489;-79
2023/03/06 04:15:42;;;;;;;17.70;10.20;;;2.80;95.40;;;;;;4942829;28;20054;-79
2023/03/06 04:18:10;;;;;;;14.93;8.90;;;2.80;95.40;;;;;;4942443;28;20547;-79
2023/03/06 04:20:38;;;;;;;17.02;10.55;;;2.80;95.50;;;;;;4942536;28;20070;-79
2023/03/06 04:23:05;;;;;;;17.35;10.32;;;2.80;95.50;;;;;;4941501;28;20044;-78
2023/03/06 04:25:32;;;;;;;13.15;8.77;;;2.80;95.50;;;;;;4942379;28;20082;-78
2023/03/06 04:28:01;;;;;;;16.33;9.50;;;2.80;95.50;;;;;;4942339;28;20558;-78
2023/03/06 04:30:29;;;;;;;17.92;10.15;;;2.80;95.90;;;;;;4957883;28;20515;-79
2023/03/06 04:32:58;;;;;;;18.35;11.38;;;2.80;95.60;;;;;;4942286;28;20133;-79
2023/03/06 04:35:26;;;;;;;14.90;9.37;;;2.80;95.60;;;;;;4942169;28;20043;-79
2023/03/06 04:38:00;;;;;;;14.70;8.20;;;2.80;95.60;;;;;;4958135;28;20580;-79
2023/03/06 04:40:32;;;;;;;14.88;9.05;;;2.80;95.50;;;;;;4926546;28;20102;-79
2023/03/06 04:43:00;;;;;;;14.30;7.63;;;2.90;95.60;;;;;;4958016;28;20047;-79
2023/03/06 04:45:29;;;;;;;15.03;8.87;;;2.90;95.60;;;;;;4941494;28;20043;-79
2023/03/06 04:47:56;;;;;;;12.60;7.07;;;2.90;95.50;;;;;;4957373;28;20046;-79
2023/03/06 04:50:26;;;;;;;14.63;8.48;;;2.90;95.50;;;;;;4941541;28;20362;-79
2023/03/06 04:52:54;;;;;;;14.67;9.07;;;2.90;95.60;;;;;;4941720;28;20137;-79
2023/03/06 04:55:21;;;;;;;15.18;9.23;;;2.90;95.60;;;;;;4954256;29;20051;-79
2023/03/06 04:57:48;;;;;;;14.18;8.30;;;2.90;95.60;;;;;;4954369;29;20058;-79
2023/03/06 05:00:19;;;;;;;14.30;9.07;;;2.90;95.60;;;;;;4920172;29;20860;-79
2023/03/06 05:02:47;;;;;;;16.45;9.93;;;2.90;95.60;;;;;;4954084;29;20433;-79
2023/03/06 05:05:15;;;;;;;15.68;9.15;;;2.90;95.60;;;;;;4955528;29;20047;-79
2023/03/06 05:07:42;;;;;;;14.67;9.30;;;2.90;95.60;;;;;;4954135;29;20520;-80
2023/03/06 05:10:12;;;;;;;16.37;9.67;;;2.90;95.60;;;;;;4938393;29;20044;-80
2023/03/06 05:12:40;;;;;;;18.97;11.10;;;2.90;95.70;;;;;;4938052;29;20058;-79
2023/03/06 05:15:08;;;;;;;17.07;9.73;;;2.80;95.70;;;;;;4953856;29;20059;-79
2023/03/06 05:17:35;;;;;;;15.03;9.33;;;2.80;95.70;;;;;;4937471;29;20051;-80
2023/03/06 05:20:05;;;;;;;18.63;10.07;;;2.80;95.80;;;;;;4953736;29;20055;-80
2023/03/06 05:22:33;;;;;;;14.77;9.60;;;2.80;95.80;;;;;;4938195;29;20055;-80
2023/03/06 05:25:00;;;;;;;15.93;10.07;;;2.80;95.90;;;;;;4922503;29;20039;-80
2023/03/06 05:27:30;;;;;;;15.88;9.48;;;2.80;95.90;;;;;;4918872;29;20055;-80
2023/03/06 05:29:57;;;;;;;14.68;8.70;;;2.80;95.90;;;;;;4940744;29;20066;-79
2023/03/06 05:32:24;;;;;;;16.25;8.88;;;2.80;95.90;;;;;;4954977;29;20070;-79
2023/03/06 05:34:53;;;;;;;15.43;8.67;;;2.80;96.00;;;;;;4934223;29;20035;-80
2023/03/06 05:37:21;;;;;;;13.63;7.80;;;2.80;95.90;;;;;;4938168;29;20126;-79
2023/03/06 05:39:49;;;;;;;14.47;7.63;;;2.90;95.90;;;;;;4919124;29;20048;-79
2023/03/06 05:42:17;;;;;;;14.60;8.18;;;2.90;95.90;;;;;;4953532;29;20071;-79
2023/03/06 05:44:44;;;;;;;14.63;7.47;;;2.90;95.90;;;;;;4934688;29;20047;-80
2023/03/06 05:47:12;;;;;;;15.23;8.57;;;2.90;95.90;;;;;;4933764;29;20487;-79
2023/03/06 05:49:39;;;;;;;15.27;8.10;;;2.90;96.00;;;;;;4926589;29;20058;-80
2023/03/06 05:52:07;;;;;;;15.20;9.07;;;2.90;96.00;;;;;;4953049;29;20039;-79
2023/03/06 05:54:35;;;;;;;13.88;7.35;;;2.90;96.00;;;;;;4954161;28;20045;-80
2023/03/06 05:57:04;;;;;;;12.10;7.03;;;2.90;96.10;;;;;;4938615;28;20503;-79
2023/03/06 05:59:31;;;;;;;15.73;8.60;;;2.90;96.10;;;;;;4928114;29;20581;-79
2023/03/06 06:01:59;;;;;;;15.83;8.80;;;2.90;96.10;;;;;;4947386;28;20047;-79
2023/03/06 06:04:27;;;;;;;16.00;8.77;;;2.90;96.20;;;;;;4931261;29;20063;-86
2023/03/06 06:06:56;;;;;;;13.83;6.80;;;2.90;96.20;;;;;;4936316;29;20470;-87
2023/03/06 06:09:24;;;;;;;13.90;6.93;;;3.00;96.20;;;;;;4949135;29;20051;-87
2023/03/06 06:11:57;;;;;;;13.48;6.75;;;2.90;96.20;;;;;;4920904;29;20052;-87
2023/03/06 06:14:25;;;;;;;13.52;7.15;;;3.00;96.20;;;;;;4954543;28;20117;-87
2023/03/06 06:16:52;;;;;;;13.48;6.70;;;3.00;96.20;;;;;;4943873;28;20059;-86
2023/03/06 06:19:20;;;;;;;10.57;6.00;;;3.00;96.20;;;;;;4931879;29;20080;-87
2023/03/06 06:21:52;;;;;;;10.97;6.50;;;3.10;96.20;;;;;;4942318;28;20075;-79
2023/03/06 06:24:23;;;;;;;10.77;6.00;;;3.10;96.20;;;;;;4941736;28;20494;-80
2023/03/06 06:26:51;;;;;;;11.80;5.80;;;3.10;96.20;;;;;;4963944;28;20047;-80
2023/03/06 06:29:19;;;;;;;10.60;5.27;;;3.10;96.20;;;;;;4938855;28;20072;-80
2023/03/06 06:31:49;;;;;;;12.47;6.70;;;3.10;96.30;;;;;;4930726;29;20048;-80
2023/03/06 06:34:16;;;;;;;13.90;7.07;;;3.20;96.30;;;;;;4936477;29;20400;-80
2023/03/06 06:36:44;;;;;;;12.93;7.87;;;3.20;96.50;;;;;;4905610;29;20426;-79
2023/03/06 06:39:14;;;;;;;12.20;6.90;;;3.20;96.30;;;;;;4934045;29;20051;-80
2023/03/06 06:41:42;;;;;;;11.17;6.73;;;3.30;96.40;;;;;;4930565;29;20079;-80
2023/03/06 06:44:29;;;;;;;11.27;6.50;;;3.30;96.60;;;;;;4926246;29;20119;-79
2023/03/06 06:46:56;;;;;;;10.43;5.60;;;3.30;96.40;;;;;;4927556;29;20075;-80
2023/03/06 06:49:45;;;;;;;8.88;5.05;;;3.30;96.30;;;;;;4939152;28;20075;-80
2023/03/06 06:52:12;;;;;;;9.20;6.10;;;3.30;96.30;;;;;;4941744;28;20047;-80
2023/03/06 06:54:39;;;;;;;10.10;5.90;;;3.40;96.30;;;;;;4908011;29;20627;-80
2023/03/06 06:57:06;;;;;;;10.63;6.03;;;3.40;96.30;;;;;;4950010;29;20047;-80
2023/03/06 06:59:33;;;;;;;10.07;5.65;;;3.40;96.30;;;;;;4912330;29;20071;-80
2023/03/06 07:02:00;;;;;;;11.15;4.47;;;3.50;96.30;;;;;;4932371;29;20446;-80
2023/03/06 07:04:27;;;;;;;9.93;5.88;;;3.50;96.30;;;;;;4952506;28;20047;-79
2023/03/06 07:07:01;;;;;;;12.52;5.95;;;3.50;96.20;;;;;;4937149;29;20048;-80
2023/03/06 07:09:29;;;;;;;9.73;5.30;;;3.50;96.20;;;;;;4953434;28;20043;-86
2023/03/06 07:11:58;;;;;;;8.63;4.63;;;3.50;96.20;;;;;;4926067;29;20489;-85
2023/03/06 07:14:25;;;;;;;8.55;4.53;;;3.60;96.20;;;;;;4957207;28;20055;-86
2023/03/06 07:16:52;;;;;;;7.43;4.40;;;3.60;96.10;;;;;;4941357;29;20138;-86
2023/03/06 07:19:19;;;;;;;6.43;4.07;;;3.70;96.00;;;;;;4957161;28;20058;-86
2023/03/06 07:21:46;;;;;;;6.63;4.07;;;3.70;96.00;;;;;;4941392;29;20051;-86
2023/03/06 07:24:13;;;;;;;5.57;3.08;;;3.70;96.00;;;;;;4951803;29;20103;-86
2023/03/06 07:26:53;;;;;;;7.43;4.57;;;3.80;95.90;;;;;;4940972;29;20046;-86
2023/03/06 07:29:20;;;;;;;9.35;4.40;;;3.90;95.90;;;;;;4957071;28;20441;-86
2023/03/06 07:31:47;;;;;;;6.50;4.03;;;3.90;95.80;;;;;;4941144;29;20134;-86
2023/03/06 07:34:14;;;;;;;6.07;3.45;;;3.90;95.70;;;;;;4925376;29;20047;-86
2023/03/06 07:36:43;;;;;;;4.95;2.80;;;4.00;95.70;;;;;;4941629;29;20094;-86
2023/03/06 07:39:10;;;;;;;6.68;3.50;;;4.00;95.70;;;;;;4909387;29;20090;-86
2023/03/06 07:41:38;;;;;;;6.90;3.28;;;4.00;95.60;;;;;;4924630;29;20074;-86
2023/03/06 07:44:07;;;;;;;6.18;3.42;;;4.00;95.60;;;;;;4937390;29;20134;-86
2023/03/06 07:46:34;;;;;;;5.00;2.92;;;4.00;95.60;;;;;;4938136;29;20050;-86
2023/03/06 07:49:01;;;;;;;5.82;3.20;;;4.00;95.60;;;;;;4945203;28;20058;-87
2023/03/06 07:51:28;;;;;;;5.13;3.42;;;4.00;95.60;;;;;;4925031;29;20039;-86
2023/03/06 07:53:56;;;;;;;6.75;3.38;;;4.10;95.90;;;;;;4956073;28;20047;-86
2023/03/06 07:56:25;;;;;;;5.05;2.70;;;4.10;95.60;;;;;;4953670;29;20062;-86
2023/03/06 07:58:53;;;;;;;6.55;3.17;;;4.20;95.50;;;;;;4940561;29;20046;-86
2023/03/06 08:01:23;;;;;;;6.82;2.67;;;4.30;95.40;;;;;;4941006;29;20085;-86
2023/03/06 08:03:51;;;;;;;5.07;2.53;;;4.40;95.30;;;;;;4924611;29;20044;-87
2023/03/06 08:06:24;;;;;;;5.75;2.38;;;4.50;95.30;;;;;;4940447;29;20053;-86
2023/03/06 08:08:53;;;;;;;4.90;2.35;;;4.50;95.10;;;;;;4940623;29;20071;-86
2023/03/06 08:11:23;;;;;;;4.50;2.10;;;4.60;95.00;;;;;;4956556;28;20048;-87
2023/03/06 08:13:51;;;;;;;4.15;1.90;;;4.60;95.00;;;;;;4956829;28;20051;-86
2023/03/06 08:16:23;;;;;;;5.35;2.30;;;4.60;94.90;;;;;;4956470;28;20102;-86
2023/03/06 08:18:51;;;;;;;3.63;1.58;;;4.60;94.90;;;;;;4956588;28;20055;-86
2023/03/06 08:21:22;;;;;;;6.25;1.95;;;4.60;94.80;;;;;;4939310;29;20106;-84
2023/03/06 08:23:50;;;;;;;2.85;1.55;;;4.70;94.80;;;;;;4939749;29;20047;-85
2023/03/06 08:26:23;;;;;;;2.90;1.52;;;4.70;94.70;;;;;;4936393;29;20425;-87
2023/03/06 08:28:51;;;;;;;2.38;1.02;;;4.80;94.60;;;;;;4944656;29;20405;-86
2023/03/06 08:31:26;;;;;;;1.98;0.95;;;4.80;94.50;;;;;;4955723;28;20047;-87
2023/03/06 08:33:56;;;;;;;2.72;1.00;;;4.80;94.40;;;;;;4939907;29;20110;-87
2023/03/06 08:36:25;;;;;;;2.42;0.80;;;4.80;94.40;;;;;;4955694;28;20062;-87
2023/03/06 08:38:53;;;;;;;1.40;0.50;;;4.80;94.40;;;;;;4940303;29;20055;-87
2023/03/06 08:41:20;;;;;;;1.98;0.90;;;4.90;94.40;;;;;;4940028;29;20066;-85
2023/03/06 08:43:48;;;;;;;1.65;0.50;;;4.90;94.20;;;;;;4939983;29;20086;-88
2023/03/06 08:46:17;;;;;;;1.73;0.57;;;5.00;94.20;;;;;;4908840;29;20494;-91
2023/03/06 08:48:47;;;;;;;0.98;0.40;;;5.10;94.20;;;;;;4939136;29;20051;-87
2023/03/06 08:51:15;;;;;;;1.00;0.40;;;5.10;94.10;;;;;;4939658;29;20055;-86
2023/03/06 08:53:46;;;;;;;;;;;5.20;94.00;;;;;;4952743;28;20522;-86
2023/03/06 08:56:27;;;;;;;0.77;0.30;;;5.30;93.90;;;;;;4938338;29;19923;-86
2023/03/06 08:58:56;;;;;;;1.23;0.60;;;5.40;93.80;;;;;;4938440;28;20469;-86
2023/03/06 09:01:28;;;;;;;1.40;0.50;;;5.40;93.70;;;;;;4920835;29;20078;-86
2023/03/06 09:04:02;;;;;;;1.15;0.40;;;5.40;93.60;;;;;;4938552;29;20043;-81
2023/03/06 09:06:33;;;;;;;1.55;0.43;;;5.40;93.60;;;;;;4955410;28;20042;-79
2023/03/06 09:09:01;;;;;;;0.93;0.37;;;5.40;93.60;;;;;;4954136;29;20485;-79
2023/03/06 09:11:31;;;;;;;0.50;0.20;;;5.40;93.60;;;;;;4938183;29;20832;-78
2023/03/06 09:13:58;;;;;;;0.60;0.20;;;5.40;93.60;;;;;;4953976;28;20051;-78
2023/03/06 09:16:25;;;;;;;1.30;0.20;;;5.40;93.60;;;;;;4955087;29;20115;-78
2023/03/06 09:18:54;;;;;;;0.40;0.13;;;5.40;93.60;;;;;;4938273;29;20137;-78
2023/03/06 09:21:24;;;;;;;0.35;0.10;;;5.30;93.80;;;;;;4938105;29;20046;-78
2023/03/06 09:23:51;;;;;;;0.57;0.20;;;5.40;93.60;;;;;;4954875;28;20043;-78
2023/03/06 09:26:18;;;;;;;0.32;0.20;;;5.40;93.50;;;;;;4953483;28;20573;-78
2023/03/06 09:28:46;;;;;;;1.05;0.25;;;5.40;93.40;;;;;;4922716;29;20047;-77
2023/03/06 09:31:22;;;;;;;0.50;0.20;;;5.40;93.30;;;;;;4952259;29;20079;-80
2023/03/06 09:33:49;;;;;;;0.30;0.10;;;5.50;93.30;;;;;;4940802;29;20043;-79
2023/03/06 09:36:21;;;;;;;0.80;0.20;;;5.50;93.30;;;;;;4922309;28;20055;-85
2023/03/06 09:38:48;;;;;;;0.50;0.20;;;5.60;93.20;;;;;;4932018;29;20122;-78
2023/03/06 09:41:25;;;;;;;0.30;0.15;;;5.60;93.10;;;;;;4937460;29;20047;-79
2023/03/06 09:44:03;;;;;;;0.35;0.17;;;5.70;92.90;;;;;;4937287;29;20054;-78
2023/03/06 09:46:52;;;;;;;0.50;0.20;;;5.70;92.90;;;;;;4953733;28;20142;-86
2023/03/06 09:50:00;;;;;;;0.08;0.08;;;5.80;92.70;;;;;;4943155;29;20056;-76
2023/03/06 09:52:37;;;;;;;0.63;0.20;;;5.90;92.60;;;;;;4940497;28;20055;-75
2023/03/06 09:55:12;;;;;;;0.32;0.10;;;6.00;92.30;;;;;;4934206;28;20192;-76
2023/03/06 09:57:42;;;;;;;1.15;0.35;;;6.10;92.30;;;;;;4956333;28;20515;-79
2023/03/06 10:00:15;;;;;;;0.57;0.10;;;6.10;92.00;;;;;;4954413;28;20157;-76
2023/03/06 10:02:52;;;;;;;0.43;0.13;;;6.10;92.00;;;;;;4956249;28;20046;-77
2023/03/06 10:05:24;;;;;;;0.22;0.10;;;6.00;92.00;;;;;;4940205;28;20043;-77
2023/03/06 10:08:04;;;;;;;0.32;0.10;;;6.00;92.10;;;;;;4956345;28;20054;-76
2023/03/06 10:10:45;;;;;;;0.68;0.10;;;6.00;92.10;;;;;;4956389;28;20067;-76
2023/03/06 10:13:19;;;;;;;0.50;0.15;;;6.10;91.90;;;;;;4940527;28;20456;-77
2023/03/06 10:15:48;;;;;;;0.30;0.15;;;6.20;91.90;;;;;;4957640;28;20051;-87
2023/03/06 10:18:15;;;;;;;0.13;0.00;;;6.30;91.80;;;;;;4957752;28;20054;-87
2023/03/06 10:21:00;;;;;;;0.30;0.10;;;6.40;91.60;;;;;;4926738;28;20046;-86
2023/03/06 10:24:12;;;;;;;0.20;0.00;;;6.60;91.30;;;;;;4948428;28;20054;-85
2023/03/06 10:27:07;;;;;;;0.20;0.10;;;6.70;91.30;;;;;;4957778;28;20047;-87
2023/03/06 10:29:46;;;;;;;0.00;0.00;;;6.70;91.10;;;;;;4957216;28;20062;-84
2023/03/06 10:32:53;;;;;;;0.43;0.10;;;6.70;91.00;;;;;;4957287;28;20078;-84
2023/03/06 10:35:29;;;;;;;0.52;0.10;;;6.60;90.00;;;;;;4922604;28;20049;-84
2023/03/06 10:38:20;;;;;;;0.10;0.00;;;6.60;90.30;;;;;;4953866;29;20102;-83
2023/03/06 10:41:09;;;;;;;0.10;0.05;;;6.60;90.30;;;;;;4937587;29;20047;-87
2023/03/06 10:43:42;;;;;;;0.47;0.10;;;6.70;90.40;;;;;;4922815;28;20043;-87
2023/03/06 10:46:13;;;;;;;0.20;0.00;;;6.80;90.20;;;;;;4941884;29;20094;-87
2023/03/06 10:48:41;;;;;;;0.20;0.00;;;6.80;90.00;;;;;;4958155;28;20051;-86
2023/03/06 10:51:20;;;;;;;0.55;0.03;;;6.80;89.80;;;;;;4961175;28;20089;-86
2023/03/06 10:53:52;;;;;;;0.80;0.10;;;6.80;88.20;;;;;;4961142;28;20051;-86
2023/03/06 10:56:35;;;;;;;0.63;0.10;;;6.80;87.90;;;;;;4957325;28;20086;-77
2023/03/06 10:59:12;;;;;;;0.40;0.10;;;6.80;87.70;;;;;;4954990;29;20102;-77
2023/03/06 11:01:51;;;;;;;0.20;0.08;;;6.70;87.30;;;;;;4940186;29;20039;-78
2023/03/06 11:04:33;;;;;;;0.00;0.00;;;6.60;87.20;;;;;;4956429;29;20051;-77
2023/03/06 11:07:18;;;;;;;0.50;0.20;;;6.60;87.10;;;;;;4956510;29;20051;-77
2023/03/06 11:09:57;;;;;;;0.13;0.10;;;6.70;87.10;;;;;;4945797;28;20709;-86
2023/03/06 11:12:35;;;;;;;0.73;0.10;;;6.70;86.90;;;;;;4957181;29;20134;-86
2023/03/06 11:15:19;;;;;;;0.28;0.03;;;6.70;86.20;;;;;;4922470;29;20051;-86
2023/03/06 11:17:48;;;;;;;1.00;0.10;;;6.80;84.90;;;;;;4922473;29;20098;-85
2023/03/06 11:20:26;;;;;;;0.85;0.10;;;6.90;84.40;;;;;;4943354;29;20145;-85
2023/03/06 11:23:06;;;;;;;0.63;0.10;;;7.00;84.70;;;;;;4956931;29;20089;-85
2023/03/06 11:25:39;;;;;;;0.05;0.00;;;7.00;83.50;;;;;;4957044;29;20043;-84
2023/03/06 11:28:20;;;;;;;1.00;0.10;;;7.00;82.50;;;;;;4941177;29;20051;-85
2023/03/06 11:30:53;;;;;;;0.20;0.10;;;7.00;81.70;;;;;;4941027;29;20106;-87
2023/03/06 11:33:58;;;;;;;0.38;0.10;;;7.00;82.00;;;;;;4957482;29;20103;-84
2023/03/06 11:36:48;;;;;;;0.17;0.00;;;7.10;81.70;;;;;;4909329;29;20086;-83
2023/03/06 11:39:42;;;;;;;0.93;0.10;;;7.20;81.50;;;;;;4956336;29;20055;-83
2023/03/06 11:42:30;;;;;;;0.60;0.10;;;7.40;81.10;;;;;;4956599;29;20102;-85
2023/03/06 11:45:24;;;;;;;0.45;0.10;;;7.50;81.20;;;;;;4956728;29;20063;-86
2023/03/06 11:48:13;;;;;;;0.00;0.00;;;7.60;81.10;;;;;;4956974;29;20047;-87
2023/03/06 11:50:41;;;;;;;0.15;0.10;;;7.70;80.90;;;;;;4956660;29;20043;-86
2023/03/06 11:53:14;;;;;;;3.53;0.10;;;7.80;81.10;;;;;;4958204;29;20094;-83
2023/03/06 11:55:54;;;;;;;0.35;0.10;;;7.80;79.50;;;;;;4941177;28;20470;-82
2023/03/06 11:58:49;;;;;;;1.05;0.10;;;7.80;78.60;;;;;;4959463;28;20058;-83
2023/03/06 12:01:24;;;;;;;0.30;0.10;;;7.80;78.70;;;;;;4946435;29;20061;-82
2023/03/06 12:04:29;;;;;;;0.40;0.13;;;7.90;78.30;;;;;;4959519;28;20057;-86
2023/03/06 12:07:32;;;;;;;0.52;0.10;;;8.00;77.10;;;;;;4959418;28;20129;-85
2023/03/06 12:10:26;;;;;;;0.68;0.10;;;8.00;77.50;;;;;;4953143;28;20055;-83
2023/03/06 12:13:19;;;;;;;1.00;0.35;;;8.00;75.60;;;;;;4958699;28;20051;-85
2023/03/06 12:16:08;;;;;;;0.95;0.10;;;8.00;75.00;;;;;;4943497;28;20047;-82
2023/03/06 12:18:53;;;;;;;0.63;0.13;;;8.00;74.00;;;;;;4939298;29;20110;-83
2023/03/06 12:21:26;;;;;;;0.20;0.10;;;8.00;73.50;;;;;;4957340;28;20390;-82
2023/03/06 12:23:59;;;;;;;1.05;0.10;;;7.90;73.90;;;;;;4943033;28;20077;-83
2023/03/06 12:27:01;;;;;;;0.57;0.13;;;7.90;74.10;;;;;;4943277;28;20054;-85
2023/03/06 12:29:46;;;;;;;0.25;0.10;;;8.00;74.20;;;;;;4959037;28;20094;-84
2023/03/06 12:32:25;;;;;;;1.05;0.10;;;8.10;73.90;;;;;;4963471;28;20050;-88
2023/03/06 12:35:26;;;;;;;0.80;0.10;;;8.20;73.60;;;;;;4970640;28;20046;-85
2023/03/06 12:38:24;;;;;;;0.45;0.30;;;8.30;73.40;;;;;;4950053;28;20078;-85
2023/03/06 12:41:09;;;;;;;0.43;0.13;;;8.40;72.20;;;;;;4937927;29;20107;-85
2023/03/06 12:43:52;;;;;;;0.98;0.20;;;8.50;72.50;;;;;;4939979;28;20393;-78
2023/03/06 12:46:25;;;;;;;1.27;0.10;;;8.60;72.00;;;;;;4967250;28;20101;-81
2023/03/06 12:49:12;;;;;;;0.38;0.10;;;8.60;72.20;;;;;;4957049;28;20043;-83
2023/03/06 12:51:50;;;;;;;0.88;0.30;;;8.60;71.00;;;;;;4957554;28;20043;-80
2023/03/06 12:54:20;;;;;;;0.47;0.20;;;8.60;70.50;;;;;;4957468;28;20074;-79
2023/03/06 12:56:48;;;;;;;0.90;0.20;;;8.60;70.40;;;;;;4957193;28;20468;-82
2023/03/06 12:59:34;;;;;;;0.82;0.25;;;8.60;70.00;;;;;;4957446;28;20081;-80
2023/03/06 13:02:20;;;;;;;0.57;0.20;;;8.50;70.10;;;;;;4941523;28;20105;-82
2023/03/06 13:04:59;;;;;;;0.43;0.20;;;8.50;69.90;;;;;;4941396;28;20082;-80
2023/03/06 13:08:09;;;;;;;0.40;0.20;;;8.50;70.10;;;;;;4956699;28;20109;-79
2023/03/06 13:10:38;;;;;;;0.40;0.10;;;8.50;70.20;;;;;;4970640;28;20043;-77
2023/03/06 13:13:24;;;;;;;0.20;0.10;;;8.50;70.90;;;;;;4957427;28;20501;-78
2023/03/06 13:16:11;;;;;;;0.47;0.20;;;8.50;70.90;;;;;;4957307;28;20114;-77
2023/03/06 13:18:41;;;;;;;1.25;0.13;;;8.50;70.50;;;;;;4957211;28;20153;-76
2023/03/06 13:21:40;;;;;;;0.77;0.30;;;8.50;71.00;;;;;;4941314;28;20133;-77